Morgan, Texas
Current Conditions -  °F | °C
As of 9:15 AM on Thursday 30 Oct 2014 (Local Time) from KCPT Reporting Station
Scattered Clouds Scattered Clouds  
Wind Chill: 15°   Ceiling: Unl
Heat Index: 15°   Visibility: 10mi
Dew Point:   Wind: 8mph
Humidity: 67%   Direction: 150°SSE
Pressure: 30.18"   Gusts: NA
Location:  32.02°N, 97.61°W
Report Text: KCPT 301415Z AUTO 15007KT 10SM FEW060 SCT070 15/09 A3018 RMK AO2
Loading
Personal Weather Stations






























Interactive Weather Map
Tropical Storm Tracking
New forecast layout! Learn more

10-Day Weather Forecast

Advertisements
Track Severe Weather on mobile